createdAt,value
2017-08-23T00:00:05.256Z,17.06
2017-08-23T00:01:05.291Z,17.08
2017-08-23T00:02:05.237Z,17.05
2017-08-23T00:03:05.517Z,17.06
2017-08-23T00:04:05.196Z,17.11
2017-08-23T00:05:05.509Z,17
2017-08-23T00:06:05.490Z,17.08
2017-08-23T00:07:05.500Z,17.08
2017-08-23T00:08:04.923Z,17.06
2017-08-23T00:09:05.427Z,17.01
2017-08-23T00:10:05.419Z,17
2017-08-23T00:11:05.417Z,17.01
2017-08-23T00:12:05.445Z,17.08
2017-08-23T00:13:05.058Z,17.09
2017-08-23T00:14:05.172Z,17.03
2017-08-23T00:15:05.389Z,17.08
2017-08-23T00:16:05.328Z,16.97
2017-08-23T00:17:05.004Z,16.94
2017-08-23T00:18:05.020Z,16.93
2017-08-23T00:19:05.270Z,16.98
2017-08-23T00:20:05.259Z,16.97
2017-08-23T00:21:05.218Z,16.97
2017-08-23T00:22:04.896Z,16.96
2017-08-23T00:23:04.931Z,16.87
2017-08-23T00:24:04.867Z,16.75
2017-08-23T00:25:04.536Z,16.82
2017-08-23T00:26:04.852Z,16.83
2017-08-23T00:27:05.184Z,16.89
2017-08-23T00:28:05.116Z,16.75
2017-08-23T00:29:04.819Z,16.74
2017-08-23T00:30:05.137Z,16.81
2017-08-23T00:31:04.751Z,16.81
2017-08-23T00:32:04.739Z,16.81
2017-08-23T00:33:05.046Z,16.87
2017-08-23T00:34:05.052Z,16.85
2017-08-23T00:35:04.996Z,16.83
2017-08-23T00:36:04.668Z,16.78
2017-08-23T00:37:05.035Z,16.85
2017-08-23T00:38:04.941Z,16.83
2017-08-23T00:39:05.024Z,16.85
2017-08-23T00:40:04.907Z,16.78
2017-08-23T00:41:04.897Z,16.72
2017-08-23T00:42:04.566Z,16.81
2017-08-23T00:43:04.550Z,16.75
2017-08-23T00:44:04.859Z,16.76
2017-08-23T00:45:04.209Z,16.79
2017-08-23T00:46:04.815Z,16.72
2017-08-23T00:47:04.807Z,16.78
2017-08-23T00:48:04.820Z,16.76
2017-08-23T00:49:04.758Z,16.78
2017-08-23T00:50:04.445Z,16.66
2017-08-23T00:51:04.731Z,16.71
2017-08-23T00:52:04.757Z,16.72
2017-08-23T00:53:04.398Z,16.79
2017-08-23T00:54:04.376Z,16.76
2017-08-23T00:55:04.662Z,16.74
2017-08-23T00:56:04.327Z,16.68
2017-08-23T00:57:04.315Z,16.69
2017-08-23T00:58:04.306Z,16.78
2017-08-23T00:59:04.585Z,16.66
2017-08-23T01:00:04.617Z,16.69
2017-08-23T01:01:04.556Z,16.72
2017-08-23T01:02:04.536Z,16.71
2017-08-23T01:03:04.209Z,16.69
2017-08-23T01:04:04.515Z,16.71
2017-08-23T01:05:04.187Z,16.63
2017-08-23T01:06:04.155Z,16.64
2017-08-23T01:07:04.456Z,16.63
2017-08-23T01:08:04.436Z,16.57
2017-08-23T01:09:04.414Z,16.61
2017-08-23T01:10:04.413Z,16.54
2017-08-23T01:11:04.387Z,16.51
2017-08-23T01:12:04.377Z,16.54
2017-08-23T01:13:04.368Z,16.45
2017-08-23T01:14:04.337Z,16.46
2017-08-23T01:15:03.710Z,16.35
2017-08-23T01:16:04.308Z,16.35
2017-08-23T01:17:03.657Z,16.34
2017-08-23T01:18:04.307Z,16.41
2017-08-23T01:19:03.946Z,16.32
2017-08-23T01:20:03.923Z,16.36
2017-08-23T01:21:03.930Z,16.32
2017-08-23T01:22:03.885Z,16.42
2017-08-23T01:23:04.177Z,16.51
2017-08-23T01:24:03.556Z,16.41
2017-08-23T01:25:03.536Z,16.46
2017-08-23T01:26:03.524Z,16.43
2017-08-23T01:27:04.116Z,16.45
2017-08-23T01:28:03.787Z,16.48
2017-08-23T01:29:03.770Z,16.45
2017-08-23T01:30:04.060Z,16.46
2017-08-23T01:31:03.742Z,16.39
2017-08-23T01:32:04.030Z,16.46
2017-08-23T01:33:04.012Z,16.38
2017-08-23T01:34:03.707Z,16.35
2017-08-23T01:35:03.668Z,16.26
2017-08-23T01:36:03.667Z,16.17
2017-08-23T01:37:03.949Z,16.21
2017-08-23T01:38:03.927Z,16.31
2017-08-23T01:39:03.596Z,16.32
2017-08-23T01:40:03.582Z,16.27
2017-08-23T01:41:03.322Z,16.35
2017-08-23T01:42:03.858Z,16.21
2017-08-23T01:43:03.528Z,16.26
2017-08-23T01:44:04.077Z,16.2
2017-08-23T01:45:03.518Z,16.1
2017-08-23T01:46:03.498Z,16.24
2017-08-23T01:47:03.801Z,16.2
2017-08-23T01:48:03.760Z,16.12
2017-08-23T01:49:03.808Z,16.16
2017-08-23T01:50:03.728Z,16.24
2017-08-23T01:51:03.400Z,16.26
2017-08-23T01:52:03.698Z,16.16
2017-08-23T01:53:03.669Z,16.16
2017-08-23T01:54:03.373Z,16.2
2017-08-23T01:55:03.650Z,16.05
2017-08-23T01:56:03.028Z,16.23
2017-08-23T01:57:03.610Z,16.21
2017-08-23T01:58:03.289Z,16.2
2017-08-23T01:59:03.368Z,16.21
2017-08-23T02:00:03.551Z,16.15
2017-08-23T02:01:03.528Z,16.07
2017-08-23T02:02:03.509Z,16.16
2017-08-23T02:03:02.909Z,16.08
2017-08-23T02:04:03.489Z,16.08
2017-08-23T02:05:03.160Z,16.04
2017-08-23T02:06:03.146Z,16.15
2017-08-23T02:07:03.429Z,16.04
2017-08-23T02:08:03.408Z,16.12
2017-08-23T02:09:03.187Z,16.02
2017-08-23T02:10:03.369Z,16.04
2017-08-23T02:11:03.048Z,16.08
2017-08-23T02:12:03.026Z,15.95
2017-08-23T02:13:03.317Z,16.04
2017-08-23T02:14:03.011Z,16.02
2017-08-23T02:15:03.288Z,16.01
2017-08-23T02:16:03.270Z,16.02
2017-08-23T02:17:03.008Z,16
2017-08-23T02:18:02.635Z,15.98
2017-08-23T02:19:03.220Z,16.02
2017-08-23T02:20:02.908Z,15.98
2017-08-23T02:21:02.879Z,15.97
2017-08-23T02:22:03.168Z,16
2017-08-23T02:23:02.847Z,16.01
2017-08-23T02:24:03.141Z,15.95
2017-08-23T02:25:02.510Z,15.9
2017-08-23T02:26:03.107Z,15.92
2017-08-23T02:27:02.781Z,15.86
2017-08-23T02:28:03.058Z,15.92
2017-08-23T02:29:02.740Z,15.9
2017-08-23T02:30:02.418Z,15.77
2017-08-23T02:31:02.410Z,15.85
2017-08-23T02:32:03.003Z,15.79
2017-08-23T02:33:02.677Z,15.86
2017-08-23T02:34:02.958Z,15.82
2017-08-23T02:35:02.958Z,15.83
2017-08-23T02:36:02.930Z,15.76
2017-08-23T02:37:02.908Z,15.83
2017-08-23T02:38:02.899Z,15.77
2017-08-23T02:39:02.876Z,15.77
2017-08-23T02:40:02.859Z,15.83
2017-08-23T02:41:02.536Z,15.8
2017-08-23T02:42:02.520Z,15.76
2017-08-23T02:43:02.494Z,15.76
2017-08-23T02:44:02.489Z,15.79
2017-08-23T02:45:02.468Z,15.79
2017-08-23T02:46:02.439Z,15.69
2017-08-23T02:47:02.751Z,15.69
2017-08-23T02:48:02.414Z,15.71
2017-08-23T02:49:02.299Z,15.6
2017-08-23T02:50:02.376Z,15.67
2017-08-23T02:51:02.362Z,15.71
2017-08-23T02:52:02.353Z,15.71
2017-08-23T02:53:02.639Z,15.77
2017-08-23T02:54:02.619Z,15.75
2017-08-23T02:55:02.289Z,15.72
2017-08-23T02:56:02.574Z,15.71
2017-08-23T02:57:02.555Z,15.68
2017-08-23T02:58:02.555Z,15.76
2017-08-23T02:59:02.530Z,15.82
2017-08-23T03:00:02.211Z,15.72
2017-08-23T03:01:02.505Z,15.72
2017-08-23T03:02:02.482Z,15.75
2017-08-23T03:03:02.471Z,15.83
2017-08-23T03:04:02.441Z,15.72
2017-08-23T03:05:02.118Z,15.69
2017-08-23T03:06:02.090Z,15.76
2017-08-23T03:07:02.091Z,15.75
2017-08-23T03:08:02.382Z,15.72
2017-08-23T03:09:02.057Z,15.71
2017-08-23T03:10:02.350Z,15.77
2017-08-23T03:11:02.320Z,15.76
2017-08-23T03:12:01.691Z,15.64
2017-08-23T03:13:02.312Z,15.64
2017-08-23T03:14:01.969Z,15.52
2017-08-23T03:15:01.964Z,15.47
2017-08-23T03:16:02.232Z,15.53
2017-08-23T03:17:01.911Z,15.64
2017-08-23T03:18:01.907Z,15.62
2017-08-23T03:19:02.190Z,15.57
2017-08-23T03:20:01.851Z,15.61
2017-08-23T03:21:02.159Z,15.49
2017-08-23T03:22:01.819Z,15.54
2017-08-23T03:23:02.109Z,15.53
2017-08-23T03:24:02.091Z,15.58
2017-08-23T03:25:02.295Z,15.53
2017-08-23T03:26:02.047Z,15.42
2017-08-23T03:27:02.053Z,15.49
2017-08-23T03:28:02.011Z,15.5
2017-08-23T03:29:02.150Z,15.47
2017-08-23T03:30:01.986Z,15.53
2017-08-23T03:31:02.109Z,15.46
2017-08-23T03:32:01.981Z,15.44
2017-08-23T03:33:01.929Z,15.49
2017-08-23T03:34:01.302Z,15.46
2017-08-23T03:35:01.601Z,15.44
2017-08-23T03:36:01.930Z,15.4
2017-08-23T03:37:01.871Z,15.49
2017-08-23T03:38:01.544Z,15.39
2017-08-23T03:39:01.538Z,15.43
2017-08-23T03:40:01.810Z,15.46
2017-08-23T03:41:01.183Z,15.43
2017-08-23T03:42:01.170Z,15.42
2017-08-23T03:43:01.512Z,15.46
2017-08-23T03:44:01.741Z,15.39
2017-08-23T03:45:01.124Z,15.46
2017-08-23T03:46:01.822Z,15.44
2017-08-23T03:47:01.720Z,15.42
2017-08-23T03:48:01.797Z,15.43
2017-08-23T03:49:01.405Z,15.34
2017-08-23T03:50:01.333Z,15.25
2017-08-23T03:51:01.143Z,15.28
2017-08-23T03:52:01.311Z,15.22
2017-08-23T03:53:01.609Z,15.25
2017-08-23T03:54:01.650Z,15.17
2017-08-23T03:55:01.285Z,15.22
2017-08-23T03:56:01.231Z,15.16
2017-08-23T03:57:01.519Z,15.2
2017-08-23T03:58:01.212Z,15.21
2017-08-23T03:59:01.522Z,15.1
2017-08-23T04:00:01.287Z,15.14
2017-08-23T04:01:01.453Z,15.17
2017-08-23T04:02:00.813Z,15.21
2017-08-23T04:03:01.400Z,15.22
2017-08-23T04:04:01.091Z,15.17
2017-08-23T04:05:01.365Z,15.22
2017-08-23T04:06:01.111Z,15.22
2017-08-23T04:07:01.344Z,15.12
2017-08-23T04:08:01.018Z,15.1
2017-08-23T04:09:01.301Z,15.21
2017-08-23T04:10:01.292Z,15.12
2017-08-23T04:11:01.385Z,15.24
2017-08-23T04:12:01.324Z,15.21
2017-08-23T04:13:00.932Z,15.17
2017-08-23T04:14:01.214Z,15.31
2017-08-23T04:15:01.198Z,15.22
2017-08-23T04:16:01.183Z,15.13
2017-08-23T04:17:01.161Z,15.14
2017-08-23T04:18:01.227Z,15.16
2017-08-23T04:19:00.817Z,15.2
2017-08-23T04:20:01.132Z,15.2
2017-08-23T04:21:00.774Z,15.12
2017-08-23T04:22:01.073Z,15.1
2017-08-23T04:23:00.736Z,15.1
2017-08-23T04:24:01.032Z,15.07
2017-08-23T04:25:01.135Z,15.04
2017-08-23T04:26:00.381Z,15.07
2017-08-23T04:27:00.674Z,15.16
2017-08-23T04:28:00.350Z,15.13
2017-08-23T04:29:00.952Z,15.12
2017-08-23T04:30:00.922Z,15.16
2017-08-23T04:31:00.595Z,15.12
2017-08-23T04:32:00.593Z,15.12
2017-08-23T04:33:00.558Z,15.12
2017-08-23T04:34:00.552Z,15.13
2017-08-23T04:35:00.546Z,15.14
2017-08-23T04:36:00.501Z,15.07
2017-08-23T04:37:00.180Z,15.16
2017-08-23T04:38:00.469Z,15.1
2017-08-23T04:39:00.465Z,15.17
2017-08-23T04:40:00.754Z,15.07
2017-08-23T04:41:00.733Z,15.13
2017-08-23T04:42:00.713Z,15.13
2017-08-23T04:43:00.073Z,15.17
2017-08-23T04:44:00.669Z,15.2
2017-08-23T04:45:00.663Z,15.21
2017-08-23T04:46:00.632Z,15.16
2017-08-23T04:47:00.318Z,15.2
2017-08-23T04:48:00.611Z,15.22
2017-08-23T04:49:00.273Z,15.24
2017-08-23T04:50:00.243Z,15.21
2017-08-23T04:51:00.235Z,15.21
2017-08-23T04:52:00.532Z,15.2
2017-08-23T04:53:00.306Z,15.22
2017-08-23T04:54:00.512Z,15.25
2017-08-23T04:55:00.522Z,15.21
2017-08-23T04:56:00.461Z,15.13
2017-08-23T04:57:00.170Z,15.14
2017-08-23T04:58:00.424Z,15.2
2017-08-23T04:59:00.450Z,15.17
2017-08-23T05:00:00.086Z,15.14
2017-08-23T05:01:00.490Z,15.14
2017-08-23T05:02:00.047Z,15.2
2017-08-23T05:02:59.772Z,15.13
2017-08-23T05:04:00.006Z,15.17
2017-08-23T05:05:00.067Z,15.17
2017-08-23T05:06:00.283Z,15.21
2017-08-23T05:06:59.964Z,15.21
2017-08-23T05:08:00.243Z,15.13
2017-08-23T05:08:59.931Z,15.14
2017-08-23T05:10:00.262Z,15.21
2017-08-23T05:10:59.915Z,15.2
2017-08-23T05:11:59.906Z,15.22
2017-08-23T05:12:59.902Z,15.16
2017-08-23T05:13:59.833Z,15.1
2017-08-23T05:15:00.176Z,15.14
2017-08-23T05:15:59.813Z,15.07
2017-08-23T05:17:00.134Z,15.14
2017-08-23T05:18:00.134Z,14.96
2017-08-23T05:19:00.094Z,15.02
2017-08-23T05:20:00.049Z,14.94
2017-08-23T05:21:00.064Z,14.94
2017-08-23T05:22:00.046Z,14.98
2017-08-23T05:22:59.365Z,15.09
2017-08-23T05:23:59.960Z,15.09
2017-08-23T05:24:59.956Z,15.1
2017-08-23T05:25:59.945Z,15.14
2017-08-23T05:26:59.970Z,15.07
2017-08-23T05:27:59.590Z,15.17
2017-08-23T05:28:59.893Z,15.2
2017-08-23T05:29:59.900Z,15.12
2017-08-23T05:30:59.844Z,15.22
2017-08-23T05:32:00.034Z,15.24
2017-08-23T05:32:59.494Z,15.22
2017-08-23T05:33:59.491Z,15.22
2017-08-23T05:34:59.453Z,15.32
2017-08-23T05:35:59.494Z,15.27
2017-08-23T05:36:59.422Z,15.31
2017-08-23T05:37:59.403Z,15.35
2017-08-23T05:38:59.097Z,15.35
2017-08-23T05:39:59.371Z,15.44
2017-08-23T05:40:59.351Z,15.43
2017-08-23T05:41:59.342Z,15.46
2017-08-23T05:42:59.332Z,15.52
2017-08-23T05:43:59.315Z,15.54
2017-08-23T05:44:59.600Z,15.49
2017-08-23T05:45:59.574Z,15.47
2017-08-23T05:46:59.645Z,15.54
2017-08-23T05:47:59.626Z,15.64
2017-08-23T05:48:58.931Z,15.62
2017-08-23T05:49:59.502Z,15.69
2017-08-23T05:50:59.713Z,15.76
2017-08-23T05:51:59.162Z,15.76
2017-08-23T05:52:58.834Z,15.72
2017-08-23T05:53:59.124Z,15.75
2017-08-23T05:54:59.625Z,15.87
2017-08-23T05:55:59.092Z,15.85
2017-08-23T05:56:59.454Z,15.82
2017-08-23T05:57:59.368Z,15.64
2017-08-23T05:58:59.353Z,15.64
2017-08-23T05:59:59.331Z,15.62
2017-08-23T06:00:59.013Z,15.54
2017-08-23T06:01:58.994Z,15.6
2017-08-23T06:02:58.682Z,15.54
2017-08-23T06:03:58.954Z,15.62
2017-08-23T06:04:58.640Z,15.64
2017-08-23T06:05:59.234Z,15.57
2017-08-23T06:06:58.905Z,15.62
2017-08-23T06:07:58.585Z,15.68
2017-08-23T06:08:59.193Z,15.65
2017-08-23T06:09:58.543Z,15.75
2017-08-23T06:10:59.204Z,15.9
2017-08-23T06:11:59.122Z,15.94
2017-08-23T06:12:58.803Z,16.02
2017-08-23T06:13:58.784Z,15.75
2017-08-23T06:14:58.773Z,15.5
2017-08-23T06:15:59.077Z,15.52
2017-08-23T06:16:58.734Z,15.52
2017-08-23T06:17:58.722Z,15.5
2017-08-23T06:18:58.705Z,15.54
2017-08-23T06:19:58.992Z,15.54
2017-08-23T06:20:58.973Z,15.71
2017-08-23T06:21:58.955Z,15.68
2017-08-23T06:22:58.943Z,15.72
2017-08-23T06:23:58.921Z,15.76
2017-08-23T06:24:58.613Z,15.65
2017-08-23T06:25:58.885Z,15.79
2017-08-23T06:26:58.574Z,15.87
2017-08-23T06:27:58.234Z,15.92
2017-08-23T06:28:58.261Z,15.98
2017-08-23T06:29:58.812Z,16.04
2017-08-23T06:30:58.194Z,16.02
2017-08-23T06:31:58.486Z,16.05
2017-08-23T06:32:58.455Z,16.07
2017-08-23T06:33:58.751Z,16.04
2017-08-23T06:34:58.447Z,16.05
2017-08-23T06:35:58.403Z,16.02
2017-08-23T06:36:58.391Z,16.24
2017-08-23T06:37:58.685Z,16.26
2017-08-23T06:38:58.354Z,16.31
2017-08-23T06:39:58.659Z,16.46
2017-08-23T06:40:58.652Z,16.61
2017-08-23T06:41:58.614Z,16.63
2017-08-23T06:42:58.589Z,16.64
2017-08-23T06:43:58.310Z,16.82
2017-08-23T06:44:58.263Z,16.71
2017-08-23T06:45:58.243Z,16.69
2017-08-23T06:46:58.222Z,16.75
2017-08-23T06:47:58.213Z,16.97
2017-08-23T06:48:58.195Z,16.97
2017-08-23T06:49:58.493Z,17.12
2017-08-23T06:50:57.858Z,17.18
2017-08-23T06:51:58.462Z,17.33
2017-08-23T06:52:58.422Z,17.37
2017-08-23T06:53:58.419Z,17.31
2017-08-23T06:54:58.089Z,17.34
2017-08-23T06:55:57.774Z,17.44
2017-08-23T06:56:58.386Z,17.44
2017-08-23T06:57:58.355Z,17.64
2017-08-23T06:58:58.610Z,17.64
2017-08-23T06:59:57.713Z,17.68
2017-08-23T07:00:57.996Z,17.46
2017-08-23T07:01:58.200Z,17.51
2017-08-23T07:02:57.970Z,17.64
2017-08-23T07:03:58.182Z,17.78
2017-08-23T07:04:57.931Z,18.14
2017-08-23T07:05:58.223Z,18.44
2017-08-23T07:06:58.128Z,19.21
2017-08-23T07:07:57.675Z,19.8
2017-08-23T07:08:58.207Z,20.66
2017-08-23T07:09:58.174Z,21.44
2017-08-23T07:10:57.853Z,22.29
2017-08-23T07:11:57.940Z,22.67
2017-08-23T07:12:58.137Z,23.47
2017-08-23T07:13:58.142Z,23.87
2017-08-23T07:14:58.120Z,24.27
2017-08-23T07:15:57.842Z,24.24
2017-08-23T07:16:57.942Z,24.37
2017-08-23T07:17:57.792Z,24.62
2017-08-23T07:18:57.783Z,25.05
2017-08-23T07:19:58.082Z,25.39
2017-08-23T07:20:57.758Z,25.44
2017-08-23T07:21:58.155Z,25.37
2017-08-23T07:22:57.423Z,25.55
2017-08-23T07:23:58.114Z,26.06
2017-08-23T07:24:57.722Z,26.42
2017-08-23T07:25:58.033Z,26.76
2017-08-23T07:26:57.724Z,26.93
2017-08-23T07:27:58.153Z,27.22
2017-08-23T07:28:57.761Z,27.49
2017-08-23T07:29:58.001Z,27.5
2017-08-23T07:30:58.043Z,27.75
2017-08-23T07:31:58.033Z,27.55
2017-08-23T07:32:57.685Z,27.04
2017-08-23T07:33:57.973Z,26.75
2017-08-23T07:34:57.963Z,26.93
2017-08-23T07:35:57.713Z,27.18
2017-08-23T07:36:57.942Z,27.4
2017-08-23T07:37:57.663Z,27.41
2017-08-23T07:38:57.632Z,27.3
2017-08-23T07:39:57.622Z,27.38
2017-08-23T07:40:57.618Z,27.23
2017-08-23T07:41:57.633Z,27.41
2017-08-23T07:42:57.624Z,27.41
2017-08-23T07:43:57.609Z,27.53
2017-08-23T07:44:57.614Z,27.38
2017-08-23T07:45:57.643Z,27.19
2017-08-23T07:46:57.899Z,26.81
2017-08-23T07:47:57.615Z,26.85
2017-08-23T07:48:57.619Z,26.89
2017-08-23T07:49:57.685Z,27.23
2017-08-23T07:50:57.582Z,27.18
2017-08-23T07:51:57.623Z,27.22
2017-08-23T07:52:57.563Z,27.53
2017-08-23T07:53:57.588Z,27.66
2017-08-23T07:54:57.874Z,27.93
2017-08-23T07:55:57.983Z,28.31
2017-08-23T07:56:57.660Z,28.23
2017-08-23T07:57:57.859Z,27.88
2017-08-23T07:58:57.639Z,28.23
2017-08-23T07:59:57.873Z,28.53
2017-08-23T08:00:57.860Z,28.8
2017-08-23T08:01:57.882Z,28.89
2017-08-23T08:02:57.863Z,28.64
2017-08-23T08:03:57.843Z,28.09
2017-08-23T08:04:57.832Z,27.59
2017-08-23T08:05:57.579Z,27.82
2017-08-23T08:06:57.833Z,28
2017-08-23T08:07:58.034Z,28.27
2017-08-23T08:08:57.831Z,28.37
2017-08-23T08:09:57.834Z,28.33
2017-08-23T08:10:57.833Z,28.27
2017-08-23T08:11:57.544Z,28.62
2017-08-23T08:12:57.835Z,28.87
2017-08-23T08:13:57.546Z,29.21
2017-08-23T08:14:57.821Z,29.59
2017-08-23T08:15:57.818Z,29.76
2017-08-23T08:16:57.850Z,29.68
2017-08-23T08:17:57.820Z,29.62
2017-08-23T08:18:58.059Z,29.64
2017-08-23T08:19:57.832Z,29.55
2017-08-23T08:20:57.812Z,29.18
2017-08-23T08:21:57.816Z,29.36
2017-08-23T08:22:57.819Z,28.97
2017-08-23T08:23:57.811Z,29
2017-08-23T08:24:57.515Z,29.15
2017-08-23T08:25:57.822Z,29.21
2017-08-23T08:26:57.831Z,29.46
2017-08-23T08:27:57.882Z,29.61
2017-08-23T08:28:57.834Z,29.81
2017-08-23T08:29:57.814Z,29.92
2017-08-23T08:30:57.556Z,30.08
2017-08-23T08:31:57.522Z,30.23
2017-08-23T08:32:57.602Z,30.17
2017-08-23T08:33:57.833Z,30.35
2017-08-23T08:34:57.862Z,30.35
2017-08-23T08:35:57.820Z,30.28
2017-08-23T08:36:57.821Z,30.01
2017-08-23T08:37:57.829Z,29.84
2017-08-23T08:38:57.819Z,29.99
2017-08-23T08:39:57.831Z,29.14
2017-08-23T08:40:57.863Z,28.89
2017-08-23T08:41:57.832Z,29.03
2017-08-23T08:42:57.822Z,29.2
2017-08-23T08:43:57.807Z,29.47
2017-08-23T08:44:57.818Z,29.86
2017-08-23T08:45:57.834Z,30.21
2017-08-23T08:46:57.952Z,30.52
2017-08-23T08:47:57.524Z,30.61
2017-08-23T08:48:57.831Z,30.71
2017-08-23T08:49:57.913Z,30.86
2017-08-23T08:50:57.832Z,30.93
2017-08-23T08:51:57.882Z,31.07
2017-08-23T08:52:57.836Z,31.05
2017-08-23T08:53:57.923Z,30.66
2017-08-23T08:54:57.831Z,30.32
2017-08-23T08:55:57.841Z,30.29
2017-08-23T08:56:57.834Z,30.26
2017-08-23T08:57:57.882Z,30.26
2017-08-23T08:58:57.841Z,30.31
2017-08-23T08:59:57.853Z,30.11
2017-08-23T09:00:57.879Z,29.15
2017-08-23T09:01:57.830Z,28.83
2017-08-23T09:02:57.829Z,28.83
2017-08-23T09:03:57.535Z,29.06
2017-08-23T09:04:57.631Z,29.46
2017-08-23T09:05:57.830Z,29.79
2017-08-23T09:06:57.831Z,29.96
2017-08-23T09:07:57.522Z,30.08
2017-08-23T09:08:57.593Z,29.76
2017-08-23T09:09:57.544Z,29.64
2017-08-23T09:10:57.840Z,29.77
2017-08-23T09:11:57.840Z,29.86
2017-08-23T09:12:57.892Z,29.7
2017-08-23T09:13:58.046Z,30.1
2017-08-23T09:14:58.131Z,30.1
2017-08-23T09:15:57.535Z,29.76
2017-08-23T09:16:57.886Z,29.77
2017-08-23T09:17:57.853Z,29.81
2017-08-23T09:18:57.850Z,30.1
2017-08-23T09:19:57.844Z,30.56
2017-08-23T09:20:57.854Z,30.56
2017-08-23T09:21:57.850Z,30.76
2017-08-23T09:22:57.824Z,30.92
2017-08-23T09:23:57.540Z,31.19
2017-08-23T09:24:57.839Z,31.45
2017-08-23T09:25:57.829Z,31.56
2017-08-23T09:26:57.838Z,31.59
2017-08-23T09:27:57.871Z,31.69
2017-08-23T09:28:57.824Z,31.66
2017-08-23T09:29:57.636Z,31.4
2017-08-23T09:30:57.863Z,30.74
2017-08-23T09:31:57.841Z,30.36
2017-08-23T09:32:57.536Z,30.28
2017-08-23T09:33:57.837Z,30.11
2017-08-23T09:34:57.542Z,29.89
2017-08-23T09:35:57.959Z,30.01
2017-08-23T09:36:57.540Z,30.18
2017-08-23T09:37:57.917Z,30.25
2017-08-23T09:38:57.858Z,30.16
2017-08-23T09:39:57.893Z,30.18
2017-08-23T09:40:57.858Z,30.08
2017-08-23T09:41:57.889Z,30.32
2017-08-23T09:42:57.948Z,30.43
2017-08-23T09:43:57.647Z,30.35
2017-08-23T09:44:57.847Z,30.52
2017-08-23T09:45:57.958Z,30.48
2017-08-23T09:46:57.868Z,30.61
2017-08-23T09:47:57.545Z,30.82
2017-08-23T09:48:57.551Z,31.04
2017-08-23T09:49:57.849Z,31.22
2017-08-23T09:50:57.858Z,31.12
2017-08-23T09:51:57.562Z,31
2017-08-23T09:52:57.849Z,31.2
2017-08-23T09:53:57.569Z,31.38
2017-08-23T09:54:57.849Z,31.45
2017-08-23T09:55:57.849Z,31.63
2017-08-23T09:56:57.541Z,31.47
2017-08-23T09:57:57.559Z,31.51
2017-08-23T09:58:57.849Z,31.38
2017-08-23T09:59:57.850Z,31.37
2017-08-23T10:00:57.548Z,31.25
2017-08-23T10:01:57.838Z,30.73
2017-08-23T10:02:57.711Z,30.23
2017-08-23T10:03:57.859Z,29.94
2017-08-23T10:04:57.858Z,29.76
2017-08-23T10:05:57.903Z,30.05
2017-08-23T10:06:57.838Z,30.08
2017-08-23T10:07:57.849Z,30.38
2017-08-23T10:08:57.837Z,30.35
2017-08-23T10:09:57.882Z,29.98
2017-08-23T10:10:57.869Z,29.86
2017-08-23T10:11:57.827Z,29.76
2017-08-23T10:12:57.816Z,29.25
2017-08-23T10:13:57.839Z,29.47
2017-08-23T10:14:57.829Z,29.47
2017-08-23T10:15:57.875Z,29.2
2017-08-23T10:16:57.810Z,29.17
2017-08-23T10:17:57.794Z,28.87
2017-08-23T10:18:57.817Z,29
2017-08-23T10:19:57.798Z,28.98
2017-08-23T10:20:57.493Z,29.2
2017-08-23T10:21:57.800Z,29.42
2017-08-23T10:22:57.475Z,29.55
2017-08-23T10:23:57.585Z,29.86
2017-08-23T10:24:57.767Z,30.1
2017-08-23T10:25:57.759Z,29.59
2017-08-23T10:26:57.761Z,29.35
2017-08-23T10:27:57.509Z,29.77
2017-08-23T10:28:57.753Z,30.11
2017-08-23T10:29:57.966Z,30.17
2017-08-23T10:30:57.743Z,30.45
2017-08-23T10:31:57.726Z,30.63
2017-08-23T10:32:57.439Z,30.82
2017-08-23T10:33:57.749Z,30.68
2017-08-23T10:34:57.705Z,30.89
2017-08-23T10:35:57.810Z,31.03
2017-08-23T10:36:57.727Z,31.03
2017-08-23T10:37:57.700Z,31.38
2017-08-23T10:38:57.392Z,31.47
2017-08-23T10:39:57.739Z,31.59
2017-08-23T10:40:57.699Z,31.75
2017-08-23T10:41:57.735Z,31.52
2017-08-23T10:42:57.659Z,31.45
2017-08-23T10:43:57.679Z,31.11
2017-08-23T10:44:57.361Z,31.07
2017-08-23T10:45:57.680Z,31.07
2017-08-23T10:46:57.636Z,31.45
2017-08-23T10:47:57.640Z,31.51
2017-08-23T10:48:57.649Z,31.9
2017-08-23T10:49:57.620Z,31.81
2017-08-23T10:50:57.629Z,31.69
2017-08-23T10:51:57.639Z,31.62
2017-08-23T10:52:57.626Z,31.89
2017-08-23T10:53:57.611Z,31.9
2017-08-23T10:54:57.627Z,32.13
2017-08-23T10:55:57.288Z,31.94
2017-08-23T10:56:57.610Z,31.85
2017-08-23T10:57:57.590Z,31.52
2017-08-23T10:58:57.569Z,30.81
2017-08-23T10:59:57.596Z,30.92
2017-08-23T11:00:57.581Z,31.05
2017-08-23T11:01:57.561Z,30.96
2017-08-23T11:02:57.545Z,31.23
2017-08-23T11:03:57.151Z,31.3
2017-08-23T11:04:57.565Z,30.95
2017-08-23T11:05:57.549Z,30.46
2017-08-23T11:06:57.536Z,30.43
2017-08-23T11:07:57.552Z,30.32
2017-08-23T11:08:57.522Z,30.59
2017-08-23T11:09:57.218Z,30.96
2017-08-23T11:10:57.196Z,30.54
2017-08-23T11:11:57.521Z,29.68
2017-08-23T11:12:57.204Z,29.51
2017-08-23T11:13:57.203Z,29.15
2017-08-23T11:14:56.857Z,28.84
2017-08-23T11:15:57.563Z,29.47
2017-08-23T11:16:57.482Z,29.7
2017-08-23T11:17:57.561Z,30.18
2017-08-23T11:18:57.473Z,30.61
2017-08-23T11:19:57.525Z,31.03
2017-08-23T11:20:57.138Z,31.34
2017-08-23T11:21:57.139Z,31.54
2017-08-23T11:22:57.431Z,31.3
2017-08-23T11:23:57.119Z,31.47
2017-08-23T11:24:57.120Z,31.54
2017-08-23T11:25:57.123Z,29.95
2017-08-23T11:26:57.403Z,29.09
2017-08-23T11:27:57.089Z,29.05
2017-08-23T11:28:57.079Z,29.05
2017-08-23T11:29:57.398Z,28.97
2017-08-23T11:30:57.068Z,29.24
2017-08-23T11:31:57.065Z,29.58
2017-08-23T11:32:57.061Z,29.35
2017-08-23T11:33:57.397Z,29.3
2017-08-23T11:34:57.355Z,28.92
2017-08-23T11:35:57.048Z,27.96
2017-08-23T11:36:57.346Z,28.52
2017-08-23T11:37:57.026Z,28.83
2017-08-23T11:38:57.338Z,29.52
2017-08-23T11:39:57.322Z,29.64
2017-08-23T11:40:57.340Z,29.47
2017-08-23T11:41:56.999Z,29.62
2017-08-23T11:42:56.997Z,29.99
2017-08-23T11:43:56.682Z,30.25
2017-08-23T11:44:57.001Z,30.56
2017-08-23T11:45:56.976Z,30.86
2017-08-23T11:46:57.258Z,31.19
2017-08-23T11:47:57.269Z,31.37
2017-08-23T11:48:57.268Z,31.41
2017-08-23T11:49:57.267Z,31.3
2017-08-23T11:50:56.946Z,31.14
2017-08-23T11:51:57.247Z,31
2017-08-23T11:52:57.248Z,31.03
2017-08-23T11:53:56.987Z,30.88
2017-08-23T11:54:57.217Z,30.81
2017-08-23T11:55:57.419Z,30.71
2017-08-23T11:56:57.220Z,30.64
2017-08-23T11:57:56.585Z,30.49
2017-08-23T11:58:56.885Z,30.1
2017-08-23T11:59:57.197Z,30.13
2017-08-23T12:00:57.227Z,30.2
2017-08-23T12:01:57.195Z,30.54
2017-08-23T12:02:57.178Z,30.61
2017-08-23T12:03:57.237Z,30.67
2017-08-23T12:04:57.157Z,30.83
2017-08-23T12:05:57.148Z,31.12
2017-08-23T12:06:57.140Z,31.37
2017-08-23T12:07:57.139Z,31.67
2017-08-23T12:08:57.178Z,31.76
2017-08-23T12:09:57.756Z,31.81
2017-08-23T12:10:57.148Z,31.94
2017-08-23T12:11:56.817Z,31.89
2017-08-23T12:12:57.136Z,31.92
2017-08-23T12:13:56.795Z,31.82
2017-08-23T12:14:57.098Z,31.51
2017-08-23T12:15:57.087Z,31.19
2017-08-23T12:16:57.105Z,29.96
2017-08-23T12:17:57.075Z,30.05
2017-08-23T12:18:57.067Z,29.61
2017-08-23T12:19:57.142Z,29.84
2017-08-23T12:20:57.067Z,29.61
2017-08-23T12:21:56.484Z,29.96
2017-08-23T12:22:56.737Z,29.84
2017-08-23T12:23:56.778Z,29.89
2017-08-23T12:24:57.037Z,30.05
2017-08-23T12:25:56.817Z,30.28
2017-08-23T12:26:57.048Z,30.55
2017-08-23T12:27:56.725Z,30.21
2017-08-23T12:28:56.388Z,30.48
2017-08-23T12:29:56.698Z,30.78
2017-08-23T12:30:56.388Z,31.08
2017-08-23T12:31:57.087Z,31.05
2017-08-23T12:32:56.673Z,30.82
2017-08-23T12:33:57.130Z,30.2
2017-08-23T12:34:56.968Z,30.17
2017-08-23T12:35:57.050Z,29.91
2017-08-23T12:36:56.349Z,29.76
2017-08-23T12:37:56.644Z,30.03
2017-08-23T12:38:56.328Z,30.21
2017-08-23T12:39:56.939Z,30.55
2017-08-23T12:40:56.620Z,30.63
2017-08-23T12:41:56.941Z,30.83
2017-08-23T12:42:56.920Z,30.59
2017-08-23T12:43:56.898Z,30.18
2017-08-23T12:44:56.605Z,29.89
2017-08-23T12:45:56.601Z,30.13
2017-08-23T12:46:56.907Z,30.25
2017-08-23T12:47:56.901Z,30.25
2017-08-23T12:48:56.876Z,30.29
2017-08-23T12:49:56.568Z,30.56
2017-08-23T12:50:56.723Z,30.77
2017-08-23T12:51:56.569Z,31.05
2017-08-23T12:52:56.858Z,31.11
2017-08-23T12:53:56.541Z,30.78
2017-08-23T12:54:56.598Z,30.66